Time;durP1;ratioP1;P1;durP2;ratioP2;P2;SDS_P1;SDS_P2;PMS_P1;PMS_P2;Temp;Humidity;BMP_temperature;BMP_pressure;BME280_temperature;BME280_humidity;BME280_pressure;Samples;Min_cycle;Max_cycle;Signal;HPM_P1;HPM_P2
2022/12/05 00:28:58;;;;;;;20.73;10.50;;;1.40;99.90;;;;;;6249844;22;20901;-74
2022/12/05 00:31:34;;;;;;;20.03;12.40;;;1.60;99.90;;;;;;6272785;22;20428;-75
2022/12/05 00:34:19;;;;;;;21.40;10.63;;;1.40;99.90;;;;;;6272743;22;20433;-73
2022/12/05 00:37:00;;;;;;;25.53;12.77;;;1.40;99.90;;;;;;6272887;22;20436;-73
2022/12/05 00:39:27;;;;;;;25.07;11.77;;;2.30;99.90;;;;;;6273104;22;20412;-74
2022/12/05 00:41:54;;;;;;;21.37;10.87;;;1.20;99.90;;;;;;6272581;22;20408;-73
2022/12/05 00:44:22;;;;;;;15.07;9.83;;;1.00;99.90;;;;;;6272848;22;20446;-74
2022/12/05 00:46:49;;;;;;;23.13;11.07;;;1.60;99.90;;;;;;6274585;22;20418;-74
2022/12/05 00:49:16;;;;;;;22.23;12.23;;;1.00;99.90;;;;;;6274406;22;20428;-73
2022/12/05 00:51:43;;;;;;;19.97;10.47;;;1.50;99.90;;;;;;6274613;22;20794;-73
2022/12/05 00:54:12;;;;;;;26.67;12.33;;;1.20;99.90;;;;;;6275004;22;20432;-74
2022/12/05 00:56:40;;;;;;;23.80;13.27;;;1.40;99.90;;;;;;6271707;22;20685;-73
2022/12/05 00:59:07;;;;;;;19.80;10.60;;;1.10;99.90;;;;;;6272176;22;20410;-73
2022/12/05 01:01:38;;;;;;;24.93;13.00;;;1.00;99.90;;;;;;6272891;22;20909;-73
2022/12/05 01:04:08;;;;;;;28.30;12.90;;;3.10;99.90;;;;;;6280636;22;20401;-74
2022/12/05 01:06:35;;;;;;;24.97;13.43;;;1.00;99.90;;;;;;6280207;22;20545;-73
2022/12/05 01:09:02;;;;;;;28.60;13.57;;;1.10;99.90;;;;;;6272639;22;20492;-73
2022/12/05 01:11:29;;;;;;;30.53;13.80;;;1.00;99.90;;;;;;6241898;23;20448;-73
2022/12/05 01:13:57;;;;;;;20.80;11.87;;;0.80;99.90;;;;;;6241411;23;20413;-73
2022/12/05 01:16:27;;;;;;;28.37;13.83;;;0.90;99.90;;;;;;6241349;23;20535;-73
2022/12/05 01:18:57;;;;;;;22.27;11.10;;;1.10;99.90;;;;;;6242111;23;20452;-73
2022/12/05 01:21:24;;;;;;;26.70;13.77;;;0.90;99.90;;;;;;6242094;23;20437;-74
2022/12/05 01:23:51;;;;;;;29.03;12.70;;;1.50;99.90;;;;;;6241666;23;20913;-74
2022/12/05 01:26:21;;;;;;;29.27;13.50;;;1.10;99.90;;;;;;6243612;23;20484;-74
2022/12/05 01:28:49;;;;;;;28.03;14.70;;;0.90;99.90;;;;;;6243139;23;20452;-73
2022/12/05 01:31:20;;;;;;;27.33;13.27;;;1.80;99.90;;;;;;6241985;23;20459;-73
2022/12/05 01:33:47;;;;;;;36.47;16.97;;;1.20;99.90;;;;;;6240939;23;20390;-73
2022/12/05 01:36:16;;;;;;;26.20;13.83;;;1.00;99.90;;;;;;6241038;23;20765;-73
2022/12/05 01:38:44;;;;;;;26.07;14.03;;;1.00;99.90;;;;;;6241457;23;20425;-75
2022/12/05 01:41:14;;;;;;;29.07;12.30;;;1.00;99.90;;;;;;6240868;23;20484;-74
2022/12/05 01:43:55;;;;;;;33.23;14.43;;;1.20;99.90;;;;;;6241347;23;20393;-74
2022/12/05 01:46:22;;;;;;;35.40;15.97;;;1.20;99.90;;;;;;6240811;23;20413;-73
2022/12/05 01:48:51;;;;;;;26.73;12.20;;;1.20;99.90;;;;;;6241473;23;20409;-73
2022/12/05 01:51:20;;;;;;;34.97;18.00;;;1.40;99.90;;;;;;6241095;23;20785;-74
2022/12/05 01:53:47;;;;;;;36.83;17.63;;;2.00;99.90;;;;;;6240835;23;20821;-74
2022/12/05 01:56:14;;;;;;;34.80;16.90;;;1.00;99.90;;;;;;6241079;23;20455;-74
2022/12/05 01:58:43;;;;;;;38.80;16.27;;;2.20;99.90;;;;;;6241017;23;20468;-73
2022/12/05 02:01:12;;;;;;;34.50;15.50;;;1.10;99.90;;;;;;6241344;23;20471;-74
2022/12/05 02:03:40;;;;;;;37.33;18.13;;;2.50;99.90;;;;;;6240770;23;20900;-74
2022/12/05 02:06:09;;;;;;;31.47;15.13;;;1.20;99.90;;;;;;6240687;23;20970;-74
2022/12/05 02:08:38;;;;;;;28.53;16.27;;;1.10;99.90;;;;;;6241021;23;20497;-74
2022/12/05 02:11:08;;;;;;;36.37;16.27;;;0.90;99.90;;;;;;6240623;22;20462;-74
2022/12/05 02:13:51;;;;;;;31.30;14.90;;;1.40;99.90;;;;;;6240425;23;20410;-74
2022/12/05 02:16:29;;;;;;;33.67;16.57;;;1.20;99.90;;;;;;6240908;23;20465;-74
2022/12/05 02:19:12;;;;;;;35.97;17.67;;;1.70;99.90;;;;;;6241094;23;20432;-74
2022/12/05 02:22:04;;;;;;;31.80;14.40;;;1.60;99.90;;;;;;6240282;23;20394;-74
2022/12/05 02:25:10;;;;;;;35.90;16.97;;;1.10;99.90;;;;;;6240661;23;20426;-73
2022/12/05 02:28:00;;;;;;;38.50;18.83;;;1.20;99.90;;;;;;6232335;23;20413;-74
2022/12/05 02:30:44;;;;;;;30.63;15.10;;;1.80;99.90;;;;;;6240222;23;20979;-74
2022/12/05 02:33:24;;;;;;;33.60;19.77;;;1.30;99.90;;;;;;6240927;23;20416;-75
2022/12/05 02:35:58;;;;;;;36.87;19.23;;;1.20;99.90;;;;;;6240470;23;20427;-74
2022/12/05 02:38:32;;;;;;;35.83;19.40;;;0.90;99.90;;;;;;6239979;23;20895;-75
2022/12/05 02:41:14;;;;;;;33.13;16.80;;;1.10;99.90;;;;;;6240791;23;20501;-75
2022/12/05 02:43:45;;;;;;;27.93;14.30;;;1.00;99.90;;;;;;6240374;23;20933;-74
2022/12/05 02:46:19;;;;;;;36.87;16.60;;;1.30;99.90;;;;;;6240461;23;20406;-74
2022/12/05 02:48:50;;;;;;;30.57;15.20;;;0.90;99.90;;;;;;6240702;23;20392;-74
2022/12/05 02:51:20;;;;;;;34.07;16.20;;;1.00;99.90;;;;;;6240186;23;20433;-74
2022/12/05 02:53:49;;;;;;;43.73;16.80;;;1.90;99.90;;;;;;6240469;23;20422;-74
2022/12/05 02:56:16;;;;;;;29.90;16.77;;;0.60;99.90;;;;;;6240467;23;20995;-75
2022/12/05 02:58:48;;;;;;;31.57;14.17;;;0.40;99.90;;;;;;6240398;23;20418;-74
2022/12/05 03:01:18;;;;;;;25.97;13.80;;;0.60;99.90;;;;;;6240988;23;20496;-74
2022/12/05 03:03:45;;;;;;;43.40;19.50;;;0.50;99.90;;;;;;6240720;23;20441;-75
2022/12/05 03:06:15;;;;;;;31.33;14.90;;;0.60;99.90;;;;;;6240707;23;20414;-74
2022/12/05 03:08:46;;;;;;;33.13;16.57;;;1.90;99.90;;;;;;6240007;23;20422;-74
2022/12/05 03:11:14;;;;;;;32.43;18.27;;;0.60;99.90;;;;;;6239746;22;20438;-75
2022/12/05 03:13:44;;;;;;;36.43;17.43;;;0.80;99.90;;;;;;6240168;23;20445;-74
2022/12/05 03:16:15;;;;;;;34.83;17.47;;;0.60;99.90;;;;;;6240623;23;20700;-74
2022/12/05 03:18:47;;;;;;;42.30;17.83;;;0.50;99.90;;;;;;6240959;23;20394;-75
2022/12/05 03:21:22;;;;;;;38.53;16.93;;;1.00;99.90;;;;;;6240167;23;20480;-74
2022/12/05 03:23:52;;;;;;;43.80;17.87;;;0.30;99.90;;;;;;6240552;23;20461;-75
2022/12/05 03:26:31;;;;;;;37.17;18.00;;;0.50;99.90;;;;;;6241280;23;20487;-78
2022/12/05 03:29:09;;;;;;;31.60;18.10;;;1.50;99.90;;;;;;6247004;23;20463;-76
2022/12/05 03:31:41;;;;;;;42.30;17.93;;;1.10;99.90;;;;;;6249208;23;20412;-75
2022/12/05 03:34:16;;;;;;;37.00;15.00;;;1.10;99.90;;;;;;6247124;23;20447;-76
2022/12/05 03:36:48;;;;;;;41.73;20.73;;;0.80;99.90;;;;;;6240460;23;20520;-75
2022/12/05 03:39:22;;;;;;;32.67;17.53;;;0.80;99.90;;;;;;6240653;23;20531;-75
2022/12/05 03:41:58;;;;;;;37.30;15.37;;;0.90;99.90;;;;;;6240111;23;20704;-74
2022/12/05 03:44:34;;;;;;;29.60;15.47;;;0.80;99.90;;;;;;6239594;23;20425;-74
2022/12/05 03:47:05;;;;;;;34.43;16.83;;;0.90;99.90;;;;;;6240100;23;20469;-75
2022/12/05 03:49:36;;;;;;;47.60;20.53;;;1.00;99.90;;;;;;6240341;23;20389;-75
2022/12/05 03:52:09;;;;;;;42.10;15.70;;;0.90;99.90;;;;;;6240241;23;20401;-74
2022/12/05 03:54:40;;;;;;;33.90;17.27;;;0.90;99.90;;;;;;6239636;23;21068;-74
2022/12/05 03:57:11;;;;;;;34.00;17.30;;;1.20;99.90;;;;;;6240274;23;20449;-75
2022/12/05 03:59:43;;;;;;;32.17;15.73;;;0.90;99.90;;;;;;6242003;23;20407;-74
2022/12/05 04:02:17;;;;;;;35.93;17.00;;;1.20;99.90;;;;;;6241106;23;20433;-74
2022/12/05 04:04:52;;;;;;;34.53;14.77;;;1.00;99.90;;;;;;6240092;23;20919;-74
2022/12/05 04:07:20;;;;;;;34.40;17.27;;;0.90;99.90;;;;;;6239860;23;20499;-74
2022/12/05 04:09:54;;;;;;;34.33;16.07;;;1.00;99.90;;;;;;6239905;22;20469;-74
2022/12/05 04:12:25;;;;;;;33.40;17.33;;;1.10;99.90;;;;;;6239928;23;20424;-74
2022/12/05 04:14:56;;;;;;;37.13;17.23;;;1.10;99.90;;;;;;6240335;23;20480;-74
2022/12/05 04:17:31;;;;;;;28.27;14.60;;;1.00;99.90;;;;;;6240118;23;20725;-74
2022/12/05 04:22:48;;;;;;;29.50;13.40;;;1.40;99.90;;;;;;6239993;23;20379;-74
2022/12/05 04:25:31;;;;;;;27.40;14.80;;;1.10;99.90;;;;;;6240045;23;20409;-75
2022/12/05 04:28:14;;;;;;;28.97;14.57;;;1.40;99.90;;;;;;6239799;23;20449;-73
2022/12/05 04:31:05;;;;;;;30.37;13.30;;;1.10;99.90;;;;;;6238561;23;20424;-74
2022/12/05 04:33:49;;;;;;;26.87;14.50;;;1.30;99.90;;;;;;6237194;23;20417;-74
2022/12/05 04:36:24;;;;;;;29.67;15.13;;;2.40;99.90;;;;;;6237242;23;20859;-74
2022/12/05 04:38:54;;;;;;;27.60;15.17;;;1.20;99.90;;;;;;6239198;23;20421;-73
2022/12/05 04:41:24;;;;;;;24.90;13.10;;;1.30;99.90;;;;;;6239941;23;20404;-74
2022/12/05 04:43:54;;;;;;;28.67;13.60;;;1.50;99.90;;;;;;6239920;23;20476;-74
2022/12/05 04:46:22;;;;;;;24.27;13.80;;;1.40;99.90;;;;;;6239675;23;20405;-75
2022/12/05 04:48:52;;;;;;;32.10;14.80;;;2.10;99.90;;;;;;6239236;23;20448;-74
2022/12/05 04:51:23;;;;;;;30.37;15.07;;;1.40;99.90;;;;;;6240182;23;20746;-74
2022/12/05 04:53:58;;;;;;;24.77;12.10;;;1.30;99.90;;;;;;6239490;23;20401;-74
2022/12/05 04:56:31;;;;;;;31.27;15.43;;;2.50;99.90;;;;;;6239705;23;20427;-74
2022/12/05 04:58:58;;;;;;;32.90;15.00;;;1.90;99.90;;;;;;6239684;23;20422;-74
2022/12/05 05:01:33;;;;;;;25.70;12.43;;;1.30;99.90;;;;;;6239555;23;20456;-74
2022/12/05 05:04:09;;;;;;;31.03;17.10;;;1.40;99.90;;;;;;6240170;23;20391;-75
2022/12/05 05:06:39;;;;;;;23.60;13.20;;;1.40;99.90;;;;;;6240064;23;20528;-75
2022/12/05 05:09:06;;;;;;;34.03;14.37;;;1.40;99.90;;;;;;6240498;22;20405;-74
2022/12/05 05:14:21;;;;;;;28.57;16.10;;;1.50;99.90;;;;;;6222541;23;20783;-74
2022/12/05 05:16:48;;;;;;;27.93;13.53;;;1.50;99.90;;;;;;6241119;23;20641;-74
2022/12/05 05:19:14;;;;;;;35.23;15.23;;;1.40;99.90;;;;;;6242378;23;20492;-73
2022/12/05 05:21:43;;;;;;;25.73;13.87;;;3.10;99.90;;;;;;6241595;23;20410;-74
2022/12/05 05:24:11;;;;;;;26.77;14.40;;;2.30;99.90;;;;;;6241537;23;20416;-74
2022/12/05 05:26:41;;;;;;;27.57;12.57;;;1.50;99.90;;;;;;6241254;23;20806;-74
2022/12/05 05:29:09;;;;;;;27.90;14.20;;;1.50;99.90;;;;;;6241384;23;20527;-74
2022/12/05 05:31:37;;;;;;;33.70;12.63;;;1.50;99.90;;;;;;6241013;23;20828;-72
2022/12/05 05:34:05;;;;;;;26.17;13.50;;;1.80;99.90;;;;;;6241747;23;20405;-76
2022/12/05 05:36:32;;;;;;;30.10;14.50;;;1.70;99.90;;;;;;6240577;23;20461;-75
2022/12/05 05:39:02;;;;;;;31.67;14.53;;;2.20;99.90;;;;;;6241204;23;20806;-75
2022/12/05 05:41:32;;;;;;;33.03;15.60;;;1.50;99.90;;;;;;6240156;23;20401;-74
2022/12/05 05:44:05;;;;;;;30.67;14.57;;;1.70;99.90;;;;;;6240000;23;20406;-74
2022/12/05 05:46:34;;;;;;;31.83;13.87;;;1.70;99.90;;;;;;6239753;23;20801;-74
2022/12/05 05:49:17;;;;;;;26.77;12.73;;;2.00;99.90;;;;;;6239008;23;20445;-75
2022/12/05 05:51:44;;;;;;;27.37;13.03;;;2.00;99.90;;;;;;6242043;23;20433;-75
2022/12/05 05:54:12;;;;;;;29.13;14.27;;;1.80;99.90;;;;;;6245369;23;20784;-78
2022/12/05 05:56:40;;;;;;;19.53;12.53;;;1.80;99.90;;;;;;6246625;23;20493;-74
2022/12/05 05:59:07;;;;;;;37.60;13.27;;;2.30;99.90;;;;;;6247984;23;20433;-75
2022/12/05 06:01:33;;;;;;;28.70;13.30;;;1.90;99.90;;;;;;6247313;23;20409;-74
2022/12/05 06:04:00;;;;;;;26.90;13.43;;;1.90;99.90;;;;;;6242102;23;20491;-75
2022/12/05 06:06:28;;;;;;;26.20;16.10;;;1.90;99.90;;;;;;6240450;23;20460;-75
2022/12/05 06:08:55;;;;;;;31.60;14.40;;;2.00;99.90;;;;;;6240148;22;20416;-75
2022/12/05 06:11:26;;;;;;;29.90;13.40;;;1.90;99.90;;;;;;6241299;23;20725;-75
2022/12/05 06:13:53;;;;;;;31.43;13.00;;;2.00;99.90;;;;;;6242752;23;20409;-72
2022/12/05 06:16:20;;;;;;;24.10;12.50;;;2.20;99.90;;;;;;6242264;23;20410;-75
2022/12/05 06:18:48;;;;;;;26.50;12.63;;;2.30;99.90;;;;;;6242168;23;20442;-75
2022/12/05 06:21:15;;;;;;;23.13;12.27;;;2.00;99.90;;;;;;6240672;23;20422;-76
2022/12/05 06:23:42;;;;;;;27.40;12.57;;;2.30;99.90;;;;;;6239614;23;20514;-74
2022/12/05 06:26:13;;;;;;;34.20;12.90;;;2.30;99.90;;;;;;6235918;23;20406;-75
2022/12/05 06:28:41;;;;;;;19.73;12.90;;;2.30;99.90;;;;;;6246553;22;20448;-75
2022/12/05 06:33:43;;;;;;;30.83;11.07;;;2.30;99.90;;;;;;6225661;22;20434;-78
2022/12/05 06:41:23;;;;;;;19.33;12.17;;;2.30;99.90;;;;;;6243229;22;20463;-81
2022/12/05 06:57:35;;;;;;;21.63;11.83;;;2.50;99.90;;;;;;6289818;22;20498;-77
2022/12/05 07:02:51;;;;;;;21.93;11.30;;;2.50;99.90;;;;;;6284395;22;20450;-79
2022/12/05 07:05:18;;;;;;;20.10;11.20;;;2.40;99.90;;;;;;6280149;22;20975;-81
2022/12/05 07:07:46;;;;;;;25.60;12.77;;;2.50;99.90;;;;;;6272422;22;20412;-83
2022/12/05 07:10:13;;;;;;;31.33;14.70;;;2.50;99.90;;;;;;6288171;22;20429;-83
2022/12/05 07:12:41;;;;;;;21.23;11.43;;;2.50;99.90;;;;;;6300437;22;20435;-81
2022/12/05 07:15:08;;;;;;;24.83;11.93;;;2.50;99.90;;;;;;6301140;22;20415;-80
2022/12/05 07:17:37;;;;;;;21.77;10.67;;;2.40;99.90;;;;;;6304281;22;20440;-80
2022/12/05 07:20:09;;;;;;;18.00;11.30;;;2.60;99.90;;;;;;6320591;22;20408;-81
2022/12/05 07:22:47;;;;;;;20.80;11.03;;;2.50;99.90;;;;;;6327813;22;20409;-79
2022/12/05 07:25:15;;;;;;;24.87;13.70;;;2.50;99.90;;;;;;6327679;22;20428;-79
2022/12/05 07:27:44;;;;;;;22.57;11.53;;;2.40;99.90;;;;;;6326481;22;20416;-79
2022/12/05 07:30:11;;;;;;;18.23;10.30;;;2.50;99.90;;;;;;6328207;22;20412;-79
2022/12/05 07:32:38;;;;;;;25.57;10.27;;;2.50;99.90;;;;;;6325470;22;20403;-81
2022/12/05 07:35:05;;;;;;;22.93;11.27;;;2.50;99.90;;;;;;6309694;22;20412;-81
2022/12/05 07:37:33;;;;;;;25.30;10.10;;;2.50;99.90;;;;;;6320767;22;20526;-81
2022/12/05 07:40:02;;;;;;;21.03;11.00;;;2.60;99.90;;;;;;6321326;22;20458;-80
2022/12/05 07:42:28;;;;;;;22.00;13.40;;;2.60;99.90;;;;;;6328109;22;20868;-80
2022/12/05 07:44:57;;;;;;;22.40;11.90;;;2.80;99.90;;;;;;6307811;22;21068;-82
2022/12/05 07:47:24;;;;;;;25.27;14.57;;;2.70;99.90;;;;;;6311416;22;20412;-80
2022/12/05 07:52:27;;;;;;;17.83;10.73;;;2.70;99.90;;;;;;6238492;22;20969;-78
2022/12/05 07:54:55;;;;;;;21.67;12.40;;;2.70;99.90;;;;;;6271530;22;20895;-78
2022/12/05 07:57:22;;;;;;;20.83;11.90;;;2.70;99.90;;;;;;6269326;22;20851;-78
2022/12/05 07:59:49;;;;;;;24.40;12.33;;;2.80;99.90;;;;;;6270599;22;20504;-78
2022/12/05 08:02:19;;;;;;;22.20;12.50;;;2.80;99.90;;;;;;6269769;22;20778;-78
2022/12/05 08:04:46;;;;;;;21.40;13.70;;;2.80;99.90;;;;;;6272852;22;20419;-77
2022/12/05 08:07:13;;;;;;;26.07;13.00;;;2.70;99.90;;;;;;6275202;22;21005;-78
2022/12/05 08:09:40;;;;;;;22.33;12.80;;;2.80;99.90;;;;;;6262550;22;20438;-78
2022/12/05 08:12:07;;;;;;;24.10;11.90;;;2.80;99.90;;;;;;6242093;23;20416;-79
2022/12/05 08:14:34;;;;;;;27.73;13.73;;;2.80;99.90;;;;;;6247769;23;20416;-77
2022/12/05 08:17:01;;;;;;;17.40;10.13;;;2.80;99.90;;;;;;6247620;23;20404;-77
2022/12/05 08:19:29;;;;;;;17.40;10.10;;;2.80;99.90;;;;;;6248830;23;20445;-79
2022/12/05 08:21:56;;;;;;;20.63;12.00;;;2.80;99.90;;;;;;6246836;23;20421;-78
2022/12/05 08:24:24;;;;;;;21.23;10.87;;;2.80;99.90;;;;;;6247969;23;20946;-78
2022/12/05 08:26:51;;;;;;;15.87;9.83;;;2.80;99.90;;;;;;6246236;23;20943;-78
2022/12/05 08:29:22;;;;;;;16.07;10.90;;;2.80;99.90;;;;;;6249775;23;20406;-78
2022/12/05 08:40:37;;;;;;;21.10;10.00;;;3.10;99.90;;;;;;6268756;22;20562;-84
2022/12/05 08:43:04;;;;;;;15.83;9.77;;;3.30;99.90;;;;;;6272212;22;20504;-85
2022/12/05 08:45:32;;;;;;;16.07;9.30;;;3.20;99.90;;;;;;6272855;22;20437;-85
2022/12/05 08:47:58;;;;;;;21.27;12.23;;;3.20;99.90;;;;;;6273920;22;20416;-86
2022/12/05 08:50:31;;;;;;;19.97;12.03;;;3.10;99.90;;;;;;6276101;22;20435;-83
2022/12/05 09:20:17;;;;;;;24.10;10.90;;;3.20;99.90;;;;;;6260998;22;20799;-87
2022/12/05 09:22:44;;;;;;;19.30;10.90;;;3.40;99.90;;;;;;6272570;22;20429;-88
2022/12/05 09:25:10;;;;;;;16.57;9.53;;;3.40;99.90;;;;;;6272310;22;20394;-87
2022/12/05 10:20:51;;;;;;;16.10;10.43;;;3.50;99.90;;;;;;6274985;22;20480;-86
2022/12/05 10:23:21;;;;;;;13.67;9.53;;;3.50;99.90;;;;;;6284062;22;20638;-86
2022/12/05 10:25:52;;;;;;;17.27;8.97;;;3.70;99.90;;;;;;6286009;22;20402;-86
2022/12/05 10:33:53;;;;;;;18.13;10.67;;;3.40;99.90;;;;;;6270202;22;20502;-87
2022/12/05 10:36:24;;;;;;;15.73;9.57;;;3.60;99.90;;;;;;6271617;22;20466;-86
2022/12/05 10:38:51;;;;;;;17.57;9.00;;;3.80;99.90;;;;;;6279013;22;20475;-84
2022/12/05 10:41:18;;;;;;;14.17;9.70;;;3.90;99.90;;;;;;6272150;22;20459;-85
2022/12/05 10:46:40;;;;;;;14.60;9.57;;;3.60;99.90;;;;;;6266822;22;20433;-87
2022/12/05 10:49:11;;;;;;;22.43;11.37;;;3.50;99.90;;;;;;6270879;22;20433;-87
2022/12/05 10:51:47;;;;;;;14.70;9.90;;;3.70;99.90;;;;;;6271328;22;20496;-89
2022/12/05 10:54:18;;;;;;;17.57;9.73;;;3.70;99.90;;;;;;6274910;22;20528;-86
2022/12/05 10:56:47;;;;;;;17.73;9.90;;;3.80;99.90;;;;;;6285607;22;20413;-87
2022/12/05 10:59:16;;;;;;;17.77;10.27;;;4.00;99.90;;;;;;6271572;22;20536;-88
2022/12/05 11:01:57;;;;;;;17.40;9.83;;;4.40;99.90;;;;;;6271555;22;20420;-89
2022/12/05 11:04:32;;;;;;;14.50;9.90;;;4.20;99.90;;;;;;6271301;22;20824;-88
2022/12/05 11:07:02;;;;;;;16.73;9.97;;;4.40;99.90;;;;;;6279863;22;20412;-91
2022/12/05 11:09:31;;;;;;;16.40;10.80;;;4.20;99.90;;;;;;6278888;22;20417;-89
2022/12/05 11:12:15;;;;;;;12.10;8.97;;;4.10;99.90;;;;;;6301941;22;20408;-86
2022/12/05 12:12:15;;;;;;;18.90;10.60;;;4.70;99.90;;;;;;6265187;22;20840;-88
2022/12/05 12:14:51;;;;;;;13.00;8.47;;;4.60;99.90;;;;;;6271215;22;20471;-84
2022/12/05 12:17:26;;;;;;;25.30;9.93;;;4.70;99.90;;;;;;6271712;22;20436;-86
2022/12/05 12:31:54;;;;;;;12.77;9.00;;;4.40;99.90;;;;;;6279091;22;20438;-80
2022/12/05 12:34:47;;;;;;;11.13;8.57;;;4.50;99.90;;;;;;6274279;22;21081;-78
2022/12/05 12:37:23;;;;;;;12.83;9.20;;;4.50;99.90;;;;;;6272885;22;20427;-71
2022/12/05 12:39:53;;;;;;;13.83;8.73;;;4.40;99.90;;;;;;6268382;22;20772;-71
2022/12/05 12:42:26;;;;;;;11.70;7.80;;;4.40;99.90;;;;;;6269842;22;20392;-70
2022/12/05 12:45:14;;;;;;;10.00;7.60;;;4.40;99.90;;;;;;6269535;22;20997;-69
2022/12/05 12:47:55;;;;;;;10.00;7.67;;;4.40;99.90;;;;;;6269121;22;21190;-71
2022/12/05 12:50:30;;;;;;;13.50;7.50;;;4.40;99.90;;;;;;6269967;22;20982;-68
2022/12/05 12:53:48;;;;;;;12.33;6.77;;;4.10;99.90;;;;;;6268738;22;20452;-68
2022/12/05 12:56:27;;;;;;;11.30;6.83;;;4.40;99.90;;;;;;6268794;22;20416;-69
2022/12/05 12:59:03;;;;;;;13.87;7.70;;;4.40;99.90;;;;;;6269816;22;20444;-69
2022/12/05 13:01:39;;;;;;;10.70;7.73;;;4.40;99.90;;;;;;6270849;22;20443;-69
2022/12/05 13:04:15;;;;;;;10.77;5.70;;;4.40;99.90;;;;;;6270038;22;20909;-69
2022/12/05 13:06:50;;;;;;;8.50;6.20;;;4.40;99.90;;;;;;6269313;22;20789;-70
2022/12/05 13:09:24;;;;;;;7.83;5.60;;;4.40;99.90;;;;;;6264248;22;20782;-70
2022/12/05 13:11:54;;;;;;;8.83;5.60;;;4.40;99.90;;;;;;6240050;23;20418;-70
2022/12/05 13:14:31;;;;;;;6.80;5.70;;;4.40;99.90;;;;;;6240016;23;20418;-70
2022/12/05 13:17:36;;;;;;;9.43;6.20;;;4.30;99.90;;;;;;6238229;23;20449;-70
2022/12/05 13:20:06;;;;;;;7.23;4.57;;;4.40;99.90;;;;;;6241823;23;20465;-71
2022/12/05 13:22:36;;;;;;;6.57;4.97;;;4.40;99.90;;;;;;6245053;23;20403;-72
2022/12/05 13:25:03;;;;;;;7.03;5.33;;;4.40;99.90;;;;;;6242470;23;20406;-69
2022/12/05 13:27:30;;;;;;;5.13;4.27;;;4.30;99.90;;;;;;6240282;23;20444;-70
2022/12/05 13:30:07;;;;;;;6.37;4.90;;;4.80;99.90;;;;;;6241639;23;20433;-70
2022/12/05 13:32:36;;;;;;;6.13;4.53;;;4.30;99.90;;;;;;6240189;23;20429;-69
2022/12/05 13:35:11;;;;;;;7.73;4.67;;;4.60;99.90;;;;;;6240819;23;20465;-70
2022/12/05 13:43:20;;;;;;;9.10;4.57;;;4.20;99.90;;;;;;6240574;23;20791;-70
2022/12/05 13:46:00;;;;;;;6.60;4.50;;;4.20;99.90;;;;;;6240737;23;20405;-69
2022/12/05 13:48:32;;;;;;;4.50;3.87;;;4.20;99.90;;;;;;6240904;23;20386;-70
2022/12/05 13:51:04;;;;;;;4.17;3.77;;;4.10;99.90;;;;;;6240844;23;20719;-70
2022/12/05 13:53:38;;;;;;;4.33;3.30;;;3.90;99.90;;;;;;6240037;23;20482;-71
2022/12/05 13:56:23;;;;;;;5.00;3.37;;;4.00;99.90;;;;;;6239992;23;20772;-72
2022/12/05 13:58:52;;;;;;;3.57;3.27;;;4.00;99.90;;;;;;6241001;23;20437;-71
2022/12/05 14:01:43;;;;;;;5.20;3.77;;;4.30;99.90;;;;;;6240117;23;20418;-71
2022/12/05 14:07:40;;;;;;;5.77;3.57;;;4.00;99.90;;;;;;6244109;23;20537;-72
2022/12/05 14:10:09;;;;;;;4.17;3.70;;;3.90;99.90;;;;;;6243200;22;20426;-71
2022/12/05 14:12:51;;;;;;;7.43;3.60;;;3.90;99.90;;;;;;6243453;23;20720;-71
2022/12/05 14:15:41;;;;;;;6.07;4.57;;;3.90;99.90;;;;;;6240301;23;20631;-70
2022/12/05 14:18:15;;;;;;;5.03;4.53;;;3.90;99.90;;;;;;6223086;23;20426;-69
2022/12/05 14:21:14;;;;;;;6.00;4.50;;;4.00;99.90;;;;;;6235825;23;20425;-70
2022/12/05 14:24:02;;;;;;;6.63;4.70;;;4.00;99.90;;;;;;6235695;23;20443;-70
2022/12/05 14:26:54;;;;;;;6.17;4.40;;;3.90;99.90;;;;;;6236211;23;21004;-70
2022/12/05 14:29:36;;;;;;;4.70;3.93;;;4.00;99.90;;;;;;6235480;23;20475;-69
2022/12/05 14:32:12;;;;;;;5.23;4.33;;;4.00;99.90;;;;;;6231821;23;20984;-72
2022/12/05 14:34:52;;;;;;;7.40;4.93;;;3.90;99.90;;;;;;6235520;23;20457;-69
2022/12/05 14:37:26;;;;;;;7.07;5.00;;;3.90;99.90;;;;;;6235587;23;20790;-69
2022/12/05 14:42:53;;;;;;;7.10;4.27;;;3.90;99.90;;;;;;6234570;23;20410;-69
2022/12/05 14:45:34;;;;;;;5.03;4.20;;;3.90;99.90;;;;;;6236221;23;20395;-71
2022/12/05 14:48:03;;;;;;;4.80;4.37;;;4.00;99.90;;;;;;6235546;23;20939;-70
2022/12/05 14:50:38;;;;;;;4.37;3.97;;;4.40;99.90;;;;;;6235625;23;20402;-70
2022/12/05 14:53:45;;;;;;;5.80;5.00;;;3.70;99.90;;;;;;6235237;23;20737;-70
2022/12/05 15:03:05;;;;;;;8.83;5.97;;;3.90;99.90;;;;;;5082230;27;21003;-71
2022/12/05 15:05:34;;;;;;;4.87;4.53;;;3.80;99.90;;;;;;5078991;28;20537;-70
2022/12/05 15:08:03;;;;;;;8.60;4.93;;;3.70;99.90;;;;;;5081302;28;20480;-70
2022/12/05 15:10:34;;;;;;;6.63;4.47;;;3.70;99.90;;;;;;5067774;28;21008;-71
2022/12/05 15:13:04;;;;;;;4.93;4.30;;;3.70;99.90;;;;;;5047202;28;20454;-69
2022/12/05 15:15:36;;;;;;;6.37;4.90;;;3.70;99.90;;;;;;5045543;28;20481;-70
2022/12/05 15:18:13;;;;;;;7.80;5.17;;;3.70;99.90;;;;;;5050058;28;20463;-69
2022/12/05 15:20:50;;;;;;;6.00;4.77;;;3.60;99.90;;;;;;5041596;28;20442;-71
2022/12/05 15:23:40;;;;;;;10.03;6.00;;;3.60;99.90;;;;;;5040549;28;20462;-69
2022/12/05 15:26:18;;;;;;;8.60;4.50;;;3.50;99.90;;;;;;5050644;28;20845;-70
2022/12/05 15:29:01;;;;;;;5.10;4.60;;;3.50;99.90;;;;;;5059829;28;20610;-70
2022/12/05 15:31:33;;;;;;;5.20;4.70;;;3.50;99.90;;;;;;5059991;28;20492;-70
2022/12/05 15:34:07;;;;;;;6.97;4.50;;;3.50;99.90;;;;;;5060544;28;20453;-70
2022/12/05 15:36:38;;;;;;;4.47;4.07;;;3.40;99.90;;;;;;5060540;28;21055;-69
2022/12/05 15:39:06;;;;;;;5.33;4.83;;;3.40;99.90;;;;;;5060447;28;20469;-70
2022/12/05 15:41:33;;;;;;;6.60;5.00;;;3.50;99.90;;;;;;5072079;28;20457;-69
2022/12/05 15:44:00;;;;;;;8.40;4.60;;;3.40;99.90;;;;;;5081224;28;20832;-70
2022/12/05 15:46:28;;;;;;;7.60;5.60;;;3.40;99.90;;;;;;5082292;28;20999;-69
2022/12/05 15:48:59;;;;;;;7.90;6.30;;;3.40;99.90;;;;;;5066600;28;20909;-73
2022/12/05 15:51:33;;;;;;;6.40;5.00;;;3.50;99.90;;;;;;5063896;28;20604;-70
2022/12/05 15:54:08;;;;;;;7.10;4.73;;;3.40;99.90;;;;;;5062229;28;20551;-69
2022/12/05 15:56:41;;;;;;;10.10;5.23;;;3.50;99.90;;;;;;5061985;28;20456;-71
2022/12/05 15:59:46;;;;;;;7.70;6.17;;;3.40;99.90;;;;;;5060801;28;20514;-71
2022/12/05 16:02:19;;;;;;;5.47;4.37;;;3.50;99.90;;;;;;5050631;28;20448;-73
2022/12/05 16:04:50;;;;;;;5.47;4.63;;;3.40;99.90;;;;;;5061162;28;20485;-70
2022/12/05 16:10:01;;;;;;;4.97;4.50;;;3.30;99.90;;;;;;5060340;28;20469;-70
2022/12/05 16:12:35;;;;;;;4.67;3.87;;;3.30;99.90;;;;;;5047938;28;20470;-70
2022/12/05 16:15:11;;;;;;;6.33;4.63;;;3.50;99.90;;;;;;5028093;28;20455;-70
2022/12/05 16:20:30;;;;;;;6.40;5.13;;;3.50;99.90;;;;;;5047315;28;20458;-69
2022/12/05 16:23:01;;;;;;;5.70;5.10;;;3.50;99.90;;;;;;5041118;28;20458;-71
2022/12/05 16:25:47;;;;;;;6.77;5.40;;;3.50;99.90;;;;;;5026937;28;20454;-70
2022/12/05 16:28:17;;;;;;;7.87;5.83;;;3.50;99.90;;;;;;5037650;28;20458;-70
2022/12/05 16:31:00;;;;;;;7.90;4.97;;;3.50;99.90;;;;;;5027653;28;20494;-71
2022/12/05 16:33:29;;;;;;;6.90;4.77;;;3.60;99.90;;;;;;5046884;28;20460;-71
2022/12/05 16:35:56;;;;;;;6.83;5.00;;;3.50;99.90;;;;;;5048987;28;20463;-71
2022/12/05 16:38:25;;;;;;;4.27;3.80;;;3.50;99.90;;;;;;5048038;28;20693;-70
2022/12/05 16:40:57;;;;;;;6.70;4.90;;;3.50;99.90;;;;;;5037938;28;20447;-71
2022/12/05 16:43:29;;;;;;;5.73;4.70;;;3.60;99.90;;;;;;5028576;28;20544;-70
2022/12/05 16:45:57;;;;;;;7.93;5.50;;;4.70;99.90;;;;;;5034211;28;20498;-69
2022/12/05 16:48:28;;;;;;;5.77;4.60;;;3.80;99.90;;;;;;5046937;28;20838;-72
2022/12/05 16:53:58;;;;;;;5.20;3.77;;;3.60;99.90;;;;;;5040690;28;20462;-71
2022/12/05 16:56:30;;;;;;;5.10;4.40;;;3.60;99.90;;;;;;5041921;28;20462;-70
2022/12/05 16:59:02;;;;;;;4.70;4.00;;;3.40;99.90;;;;;;5039113;28;20457;-70
2022/12/05 17:01:29;;;;;;;7.30;4.73;;;3.60;99.90;;;;;;5046150;28;20683;-68
2022/12/05 17:03:57;;;;;;;5.40;4.67;;;3.70;99.90;;;;;;5046030;28;20537;-68
2022/12/05 17:06:30;;;;;;;4.70;3.80;;;3.70;99.90;;;;;;5045759;28;20484;-69
2022/12/05 17:09:00;;;;;;;5.77;4.50;;;3.90;99.90;;;;;;5043729;28;21037;-69
2022/12/05 17:11:39;;;;;;;4.03;3.60;;;4.00;99.90;;;;;;5046541;28;20490;-71
2022/12/05 17:14:09;;;;;;;3.80;3.33;;;4.10;99.90;;;;;;5046289;28;21072;-70
2022/12/05 17:16:36;;;;;;;221.30;123.53;;;4.00;99.90;;;;;;5045345;28;20961;-69
2022/12/05 17:19:06;;;;;;;4.63;4.23;;;3.70;99.90;;;;;;5045627;28;20927;-69
2022/12/05 17:21:34;;;;;;;5.30;3.10;;;3.80;99.90;;;;;;5027589;28;20460;-70
2022/12/05 17:24:02;;;;;;;3.47;3.17;;;3.60;99.90;;;;;;5038035;28;20552;-71